createdAt,value
2019-02-24T00:02:16.806Z,103910.95
2019-02-24T00:04:47.011Z,103907.98
2019-02-24T00:07:17.385Z,103902.16
2019-02-24T00:09:47.710Z,103905.52
2019-02-24T00:12:17.876Z,103907.47
2019-02-24T00:14:48.118Z,103902.30
2019-02-24T00:17:18.378Z,103907.73
2019-02-24T00:19:48.527Z,103905.80
2019-02-24T00:22:18.815Z,103903.47
2019-02-24T00:24:49.026Z,103902.83
2019-02-24T00:27:19.071Z,103908.67
2019-02-24T00:29:49.220Z,103905.04
2019-02-24T00:32:19.513Z,103908.14
2019-02-24T00:34:49.766Z,103909.16
2019-02-24T00:37:19.867Z,103908.41
2019-02-24T00:39:49.990Z,103915.89
2019-02-24T00:42:20.085Z,103907.48
2019-02-24T00:44:50.234Z,103901.16
2019-02-24T00:47:20.458Z,103907.09
2019-02-24T00:49:50.723Z,103905.02
2019-02-24T00:52:21.786Z,103902.07
2019-02-24T00:54:52.054Z,103905.95
2019-02-24T00:57:22.340Z,103903.61
2019-02-24T00:59:52.518Z,103901.42
2019-02-24T01:02:22.617Z,103901.53
2019-02-24T01:04:52.775Z,103904.77
2019-02-24T01:07:23.066Z,103906.58
2019-02-24T01:09:53.172Z,103903.73
2019-02-24T01:12:23.337Z,103894.94
2019-02-24T01:14:53.460Z,103896.88
2019-02-24T01:17:23.545Z,103898.03
2019-02-24T01:19:53.848Z,103900.63
2019-02-24T01:22:23.913Z,103897.53
2019-02-24T01:24:54.004Z,103903.71
2019-02-24T01:27:24.150Z,103903.71
2019-02-24T01:29:54.374Z,103898.79
2019-02-24T01:32:24.496Z,103903.86
2019-02-24T01:34:54.728Z,103916.65
2019-02-24T01:37:25.034Z,103917.69
2019-02-24T01:39:55.250Z,103918.20
2019-02-24T01:42:25.990Z,103923.08
2019-02-24T01:44:56.138Z,103924.66
2019-02-24T01:47:26.289Z,103922.69
2019-02-24T01:49:56.558Z,103925.13
2019-02-24T01:52:26.693Z,103923.07
2019-02-24T01:54:56.871Z,103918.91
2019-02-24T01:57:27.018Z,103915.27
2019-02-24T01:59:57.170Z,103915.27
2019-02-24T02:02:27.309Z,103901.94
2019-02-24T02:04:58.581Z,103901.92
2019-02-24T02:07:28.965Z,103892.73
2019-02-24T02:09:59.172Z,103892.33
2019-02-24T02:12:29.907Z,103884.17
2019-02-24T02:15:02.630Z,103874.73
2019-02-24T02:17:32.849Z,103869.91
2019-02-24T02:20:03.149Z,103867.97
2019-02-24T02:22:33.329Z,103860.13
2019-02-24T02:25:03.726Z,103863.61
2019-02-24T02:27:34.040Z,103851.88
2019-02-24T02:30:04.381Z,103848.66
2019-02-24T02:32:34.630Z,103856.05
2019-02-24T02:35:05.744Z,103855.55
2019-02-24T02:37:36.094Z,103857.38
2019-02-24T02:40:06.920Z,103859.86
2019-02-24T02:42:37.078Z,103854.14
2019-02-24T02:45:08.080Z,103850.55
2019-02-24T02:47:38.163Z,103842.39
2019-02-24T02:50:08.398Z,103844.47
2019-02-24T02:52:38.519Z,103839.55
2019-02-24T02:55:08.820Z,103843.83
2019-02-24T02:57:38.998Z,103848.07
2019-02-24T03:00:36.712Z,103847.17
2019-02-24T03:03:06.917Z,103855.44
2019-02-24T03:05:37.166Z,103862.30
2019-02-24T03:08:12.305Z,103869.27
2019-02-24T03:10:42.596Z,103868.88
2019-02-24T03:13:12.673Z,103868.98
2019-02-24T03:15:42.750Z,103862.26
2019-02-24T03:18:12.886Z,103859.64
2019-02-24T03:20:44.307Z,103857.30
2019-02-24T03:23:14.382Z,103856.64
2019-02-24T03:25:44.542Z,103854.05
2019-02-24T03:28:14.702Z,103847.30
2019-02-24T03:30:44.834Z,103853.50
2019-02-24T03:33:14.898Z,103854.00
2019-02-24T03:35:45.087Z,103858.02
2019-02-24T03:38:15.224Z,103864.81
2019-02-24T03:40:45.514Z,103865.45
2019-02-24T03:43:15.809Z,103868.02
2019-02-24T03:45:45.970Z,103870.56
2019-02-24T03:48:16.172Z,103866.16
2019-02-24T03:50:46.244Z,103871.81
2019-02-24T03:53:16.394Z,103877.86
2019-02-24T03:55:46.500Z,103881.05
2019-02-24T03:58:16.761Z,103889.94
2019-02-24T04:00:46.949Z,103887.06
2019-02-24T04:03:17.242Z,103891.45
2019-02-24T04:05:47.410Z,103892.83
2019-02-24T04:08:17.632Z,103880.65
2019-02-24T04:10:47.916Z,103877.89
2019-02-24T04:13:18.075Z,103880.59
2019-02-24T04:15:48.396Z,103875.52
2019-02-24T04:18:18.643Z,103860.91
2019-02-24T04:20:48.804Z,103856.14
2019-02-24T04:23:18.902Z,103855.88
2019-02-24T04:25:49.055Z,103860.41
2019-02-24T04:28:19.424Z,103866.97
2019-02-24T04:30:49.581Z,103868.41
2019-02-24T04:33:27.644Z,103880.92
2019-02-24T04:36:06.079Z,103879.36
2019-02-24T04:38:36.331Z,103873.78
2019-02-24T04:41:06.949Z,103861.52
2019-02-24T04:43:37.256Z,103855.45
2019-02-24T04:46:07.308Z,103842.41
2019-02-24T04:48:37.567Z,103845.64
2019-02-24T04:51:07.763Z,103843.56
2019-02-24T04:53:41.113Z,103860.52
2019-02-24T04:56:11.192Z,103867.13
2019-02-24T04:58:41.721Z,103868.41
2019-02-24T05:01:12.110Z,103869.20
2019-02-24T05:03:42.631Z,103870.48
2019-02-24T05:06:13.187Z,103866.07
2019-02-24T05:08:43.598Z,103873.00
2019-02-24T05:11:18.641Z,103878.67
2019-02-24T05:13:49.217Z,103879.15
2019-02-24T05:16:19.691Z,103871.97
2019-02-24T05:18:50.331Z,103871.62
2019-02-24T05:21:20.665Z,103871.47
2019-02-24T05:23:51.168Z,103872.60
2019-02-24T05:26:21.675Z,103872.56
2019-02-24T05:28:52.147Z,103875.53
2019-02-24T05:33:52.691Z,103864.47
2019-02-24T05:36:23.184Z,103870.92
2019-02-24T05:38:53.768Z,103875.25
2019-02-24T05:41:24.409Z,103886.34
2019-02-24T05:43:54.890Z,103893.45
2019-02-24T05:46:25.325Z,103896.97
2019-02-24T05:48:55.852Z,103896.55
2019-02-24T05:51:26.393Z,103895.89
2019-02-24T05:53:56.880Z,103890.42
2019-02-24T05:56:27.324Z,103897.11
2019-02-24T05:58:57.840Z,103896.05
2019-02-24T06:01:28.368Z,103893.59
2019-02-24T06:03:58.720Z,103897.03
2019-02-24T06:06:29.273Z,103888.52
2019-02-24T06:11:47.111Z,103908.82
2019-02-24T06:14:17.703Z,103908.23
2019-02-24T06:16:48.166Z,103911.06
2019-02-24T06:19:18.778Z,103908.48
2019-02-24T06:21:49.074Z,103921.14
2019-02-24T06:24:19.525Z,103922.81
2019-02-24T06:26:50.059Z,103939.47
2019-02-24T06:29:20.579Z,103935.88
2019-02-24T06:31:51.452Z,103943.61
2019-02-24T06:34:22.251Z,103951.20
2019-02-24T06:36:52.874Z,103948.70
2019-02-24T06:39:23.209Z,103953.03
2019-02-24T06:41:53.724Z,103954.59
2019-02-24T06:44:23.883Z,103962.84
2019-02-24T06:46:54.110Z,103960.50
2019-02-24T06:49:24.267Z,103952.99
2019-02-24T06:51:54.513Z,103950.64
2019-02-24T06:54:24.577Z,103959.01
2019-02-24T06:56:54.994Z,103965.84
2019-02-24T06:59:25.320Z,103966.74
2019-02-24T07:02:08.789Z,103971.52
2019-02-24T07:04:38.911Z,103963.16
2019-02-24T07:07:09.105Z,103958.70
2019-02-24T07:09:39.390Z,103950.56
2019-02-24T07:12:09.552Z,103947.59
2019-02-24T07:14:39.730Z,103940.45
2019-02-24T07:17:09.981Z,103932.13
2019-02-24T07:19:40.337Z,103929.77
2019-02-24T07:22:10.627Z,103939.80
2019-02-24T07:24:43.857Z,103941.55
2019-02-24T07:27:14.205Z,103936.98
2019-02-24T07:29:44.468Z,103939.39
2019-02-24T07:32:14.695Z,103949.62
2019-02-24T07:34:44.884Z,103956.55
2019-02-24T07:37:17.272Z,103959.58
2019-02-24T07:39:49.724Z,103957.67
2019-02-24T07:42:20.240Z,103960.57
2019-02-24T07:44:50.569Z,103959.59
2019-02-24T07:47:20.932Z,103961.70
2019-02-24T07:49:51.245Z,103957.86
2019-02-24T07:52:21.485Z,103956.77
2019-02-24T07:54:51.715Z,103960.28
2019-02-24T07:57:21.901Z,103959.58
2019-02-24T07:59:52.074Z,103957.54
2019-02-24T08:02:22.350Z,103947.45
2019-02-24T08:04:52.596Z,103945.28
2019-02-24T08:07:22.740Z,103946.20
2019-02-24T08:09:52.871Z,103949.56
2019-02-24T08:12:23.070Z,103951.23
2019-02-24T08:14:53.252Z,103948.52
2019-02-24T08:17:25.771Z,103950.33
2019-02-24T08:19:55.248Z,103940.87
2019-02-24T08:22:25.550Z,103935.14
2019-02-24T08:25:00.274Z,103930.45
2019-02-24T08:27:30.507Z,103935.48
2019-02-24T08:30:02.539Z,103930.52
2019-02-24T08:32:32.768Z,103931.66
2019-02-24T08:35:02.951Z,103933.70
2019-02-24T08:37:33.255Z,103933.66
2019-02-24T08:40:03.633Z,103933.59
2019-02-24T08:42:33.859Z,103940.14
2019-02-24T08:45:04.158Z,103946.19
2019-02-24T08:47:34.416Z,103948.61
2019-02-24T08:50:05.278Z,103952.73
2019-02-24T08:52:35.563Z,103955.51
2019-02-24T08:55:07.010Z,103961.31
2019-02-24T08:57:37.216Z,103962.17
2019-02-24T09:00:09.752Z,103960.95
2019-02-24T09:02:39.930Z,103963.86
2019-02-24T09:05:15.925Z,103972.76
2019-02-24T09:07:46.069Z,103969.47
2019-02-24T09:10:19.304Z,103970.31
2019-02-24T09:12:49.567Z,103975.31
2019-02-24T09:15:20.087Z,103975.86
2019-02-24T09:17:50.316Z,103969.52
2019-02-24T09:20:20.594Z,103953.43
2019-02-24T09:22:50.836Z,103945.13
2019-02-24T09:25:21.045Z,103950.33
2019-02-24T09:27:51.371Z,103943.44
2019-02-24T09:30:21.495Z,103938.05
2019-02-24T09:32:51.596Z,103946.06
2019-02-24T09:35:21.819Z,103945.02
2019-02-24T09:37:51.973Z,103951.88
2019-02-24T09:40:22.134Z,103950.95
2019-02-24T09:42:52.291Z,103942.70
2019-02-24T09:45:22.507Z,103943.83
2019-02-24T09:47:52.739Z,103936.36
2019-02-24T09:50:24.320Z,103943.50
2019-02-24T09:52:54.672Z,103946.13
2019-02-24T09:55:25.002Z,103949.64
2019-02-24T09:57:55.464Z,103943.15
2019-02-24T10:00:25.610Z,103948.30
2019-02-24T10:02:57.525Z,103941.77
2019-02-24T10:05:27.961Z,103939.16
2019-02-24T10:07:59.287Z,103943.91
2019-02-24T10:10:29.386Z,103950.55
2019-02-24T10:12:59.597Z,103949.21
2019-02-24T10:15:29.889Z,103942.32
2019-02-24T10:18:00.209Z,103946.61
2019-02-24T10:20:30.416Z,103957.64
2019-02-24T10:23:01.170Z,103971.33
2019-02-24T10:25:31.248Z,103979.34
2019-02-24T10:28:03.196Z,103982.95
2019-02-24T10:30:33.414Z,103977.73
2019-02-24T10:33:06.202Z,103986.86
2019-02-24T10:35:36.436Z,103983.13
2019-02-24T10:38:06.953Z,103976.30
2019-02-24T10:40:37.286Z,103972.56
2019-02-24T10:43:07.552Z,103978.97
2019-02-24T10:45:37.621Z,103989.02
2019-02-24T10:48:13.946Z,103994.31
2019-02-24T10:50:39.998Z,103981.67
2019-02-24T10:53:10.321Z,103975.23
2019-02-24T10:55:40.648Z,103984.95
2019-02-24T10:58:10.981Z,103993.55
2019-02-24T11:00:41.291Z,104002.67
2019-02-24T11:03:11.638Z,103993.19
2019-02-24T11:05:41.852Z,103979.58
2019-02-24T11:08:12.094Z,103978.03
2019-02-24T11:10:42.601Z,103981.30
2019-02-24T11:13:14.134Z,103993.03
2019-02-24T11:15:44.284Z,103987.18
2019-02-24T11:18:14.420Z,103989.14
2019-02-24T11:20:44.552Z,104010.61
2019-02-24T11:23:14.711Z,104010.19
2019-02-24T11:25:44.833Z,104002.67
2019-02-24T11:28:15.054Z,104008.48
2019-02-24T11:30:45.296Z,104012.38
2019-02-24T11:33:15.390Z,104005.30
2019-02-24T11:35:45.699Z,104001.22
2019-02-24T11:38:16.031Z,104001.91
2019-02-24T11:40:46.358Z,103995.05
2019-02-24T11:43:16.604Z,103988.81
2019-02-24T11:45:46.773Z,103986.23
2019-02-24T11:48:16.931Z,103981.72
2019-02-24T11:50:47.185Z,103977.73
2019-02-24T11:53:17.287Z,103969.33
2019-02-24T11:55:47.470Z,103967.43
2019-02-24T11:58:17.566Z,103971.74
2019-02-24T12:00:47.872Z,103968.63
2019-02-24T12:03:18.043Z,103970.44
2019-02-24T12:05:48.301Z,103960.12
2019-02-24T12:08:18.484Z,103959.80
2019-02-24T12:10:48.602Z,103959.03
2019-02-24T12:13:18.876Z,103953.04
2019-02-24T12:15:49.118Z,103963.17
2019-02-24T12:18:19.333Z,103957.39
2019-02-24T12:20:49.661Z,103958.36
2019-02-24T12:23:19.976Z,103966.19
2019-02-24T12:25:50.342Z,103965.19
2019-02-24T12:28:20.790Z,103963.52
2019-02-24T12:30:51.111Z,103960.64
2019-02-24T12:33:21.378Z,103957.14
2019-02-24T12:35:51.697Z,103957.20
2019-02-24T12:38:22.018Z,103958.27
2019-02-24T12:40:54.330Z,103962.89
2019-02-24T12:43:24.717Z,103956.55
2019-02-24T12:45:56.953Z,103951.48
2019-02-24T12:48:27.071Z,103938.89
2019-02-24T12:50:57.319Z,103937.63
2019-02-24T12:53:27.692Z,103945.77
2019-02-24T12:55:57.985Z,103944.60
2019-02-24T12:58:28.265Z,103940.41
2019-02-24T13:00:58.594Z,103934.00
2019-02-24T13:03:28.873Z,103928.44
2019-02-24T13:05:59.161Z,103928.94
2019-02-24T13:08:29.435Z,103928.05
2019-02-24T13:10:59.820Z,103915.69
2019-02-24T13:13:30.154Z,103918.78
2019-02-24T13:16:00.315Z,103912.98
2019-02-24T13:18:30.554Z,103908.20
2019-02-24T13:21:00.759Z,103902.36
2019-02-24T13:23:30.976Z,103897.97
2019-02-24T13:26:02.155Z,103897.14
2019-02-24T13:28:34.541Z,103898.63
2019-02-24T13:31:04.838Z,103892.27
2019-02-24T13:33:35.172Z,103886.67
2019-02-24T13:36:06.842Z,103881.17
2019-02-24T13:38:37.098Z,103878.71
2019-02-24T13:41:07.442Z,103880.55
2019-02-24T13:43:37.831Z,103879.25
2019-02-24T13:46:08.108Z,103878.25
2019-02-24T13:48:38.491Z,103878.18
2019-02-24T13:51:09.843Z,103874.81
2019-02-24T13:53:40.288Z,103878.59
2019-02-24T13:56:10.680Z,103875.62
2019-02-24T13:58:41.095Z,103875.83
2019-02-24T14:01:11.254Z,103877.25
2019-02-24T14:03:41.595Z,103879.21
2019-02-24T14:06:11.897Z,103880.27
2019-02-24T14:08:42.209Z,103885.22
2019-02-24T14:11:12.502Z,103878.09
2019-02-24T14:13:42.736Z,103884.67
2019-02-24T14:16:12.917Z,103882.52
2019-02-24T14:18:43.103Z,103871.19
2019-02-24T14:21:13.402Z,103877.69
2019-02-24T14:23:43.642Z,103886.09
2019-02-24T14:26:14.088Z,103885.28
2019-02-24T14:28:48.230Z,103888.02
2019-02-24T14:31:18.499Z,103887.60
2019-02-24T14:33:48.829Z,103886.50
2019-02-24T14:36:19.194Z,103886.78
2019-02-24T14:38:49.516Z,103893.74
2019-02-24T14:41:19.876Z,103888.77
2019-02-24T14:43:50.655Z,103888.11
2019-02-24T14:46:20.915Z,103885.28
2019-02-24T14:48:51.330Z,103877.17
2019-02-24T14:51:21.632Z,103878.26
2019-02-24T14:53:51.937Z,103882.03
2019-02-24T14:56:22.160Z,103877.05
2019-02-24T14:58:52.471Z,103873.39
2019-02-24T15:01:22.842Z,103867.47
2019-02-24T15:03:54.857Z,103873.59
2019-02-24T15:06:25.090Z,103843.70
2019-02-24T15:08:55.371Z,103869.21
2019-02-24T15:11:25.511Z,103867.69
2019-02-24T15:13:55.693Z,103870.21
2019-02-24T15:16:25.981Z,103878.09
2019-02-24T15:18:56.170Z,103864.80
2019-02-24T15:21:26.817Z,103862.40
2019-02-24T15:23:56.961Z,103873.73
2019-02-24T15:26:29.181Z,103873.09
2019-02-24T15:28:59.201Z,103873.34
2019-02-24T15:31:29.508Z,103866.09
2019-02-24T15:33:59.774Z,103872.86
2019-02-24T15:36:29.995Z,103877.38
2019-02-24T15:39:00.281Z,103865.63
2019-02-24T15:41:30.983Z,103874.14
2019-02-24T15:44:01.452Z,103872.91
2019-02-24T15:46:31.927Z,103874.68
2019-02-24T15:49:02.537Z,103870.71
2019-02-24T15:51:33.094Z,103871.61
2019-02-24T15:54:03.690Z,103870.41
2019-02-24T15:56:34.308Z,103879.28
2019-02-24T15:59:04.846Z,103880.65
2019-02-24T16:01:35.509Z,103879.88
2019-02-24T16:04:07.503Z,103881.66
2019-02-24T16:06:38.004Z,103872.00
2019-02-24T16:09:10.790Z,103882.68
2019-02-24T16:11:41.317Z,103883.59
2019-02-24T16:14:11.787Z,103885.30
2019-02-24T16:16:42.399Z,103880.36
2019-02-24T16:19:15.650Z,103890.05
2019-02-24T16:21:49.580Z,103880.73
2019-02-24T16:24:20.116Z,103881.43
2019-02-24T16:26:50.783Z,103885.08
2019-02-24T16:29:21.333Z,103899.42
2019-02-24T16:31:51.659Z,103887.78
2019-02-24T16:34:22.242Z,103880.48
2019-02-24T16:36:53.033Z,103886.34
2019-02-24T16:39:23.605Z,103883.39
2019-02-24T16:41:56.600Z,103881.39
2019-02-24T16:44:27.210Z,103884.16
2019-02-24T16:46:57.913Z,103891.42
2019-02-24T16:49:29.834Z,103887.19
2019-02-24T16:52:02.410Z,103878.55
2019-02-24T16:54:32.807Z,103880.52
2019-02-24T16:57:07.550Z,103878.89
2019-02-24T16:59:37.245Z,103874.20
2019-02-24T17:02:07.854Z,103877.97
2019-02-24T17:04:38.572Z,103884.31
2019-02-24T17:07:09.246Z,103886.16
2019-02-24T17:09:42.263Z,103900.30
2019-02-24T17:12:12.967Z,103902.59
2019-02-24T17:14:46.654Z,103906.55
2019-02-24T17:17:17.176Z,103905.02
2019-02-24T17:19:47.887Z,103910.05
2019-02-24T17:22:18.548Z,103902.41
2019-02-24T17:24:49.000Z,103906.82
2019-02-24T17:27:20.965Z,103909.25
2019-02-24T17:29:58.842Z,103905.97
2019-02-24T17:32:31.750Z,103910.50
2019-02-24T17:35:02.225Z,103918.82
2019-02-24T17:37:41.901Z,103923.59
2019-02-24T17:40:13.660Z,103926.41
2019-02-24T17:42:46.399Z,103929.53
2019-02-24T17:45:17.246Z,103942.97
2019-02-24T17:47:47.839Z,103942.11
2019-02-24T17:50:18.547Z,103930.52
2019-02-24T17:52:49.233Z,103933.79
2019-02-24T17:55:19.697Z,103937.57
2019-02-24T17:57:50.211Z,103933.88
2019-02-24T18:00:26.772Z,103931.61
2019-02-24T18:02:57.525Z,103938.27
2019-02-24T18:05:28.085Z,103933.44
2019-02-24T18:07:58.597Z,103927.95
2019-02-24T18:10:29.214Z,103923.66
2019-02-24T18:12:59.630Z,103930.31
2019-02-24T18:15:30.199Z,103927.19
2019-02-24T18:18:07.945Z,103925.11
2019-02-24T18:20:38.470Z,103924.64
2019-02-24T18:23:09.018Z,103925.73
2019-02-24T18:25:39.583Z,103928.46
2019-02-24T18:28:10.039Z,103925.85
2019-02-24T18:30:40.721Z,103924.55
2019-02-24T18:33:11.459Z,103924.25
2019-02-24T18:35:41.983Z,103926.37
2019-02-24T18:40:55.025Z,103920.04
2019-02-24T18:43:25.616Z,103923.77
2019-02-24T18:45:56.116Z,103920.15
2019-02-24T18:48:26.852Z,103928.76
2019-02-24T18:50:59.724Z,103921.34
2019-02-24T18:53:31.601Z,103919.84
2019-02-24T18:56:02.258Z,103918.42
2019-02-24T18:58:32.992Z,103915.63
2019-02-24T19:01:12.281Z,103917.00
2019-02-24T19:03:42.979Z,103924.34
2019-02-24T19:06:13.557Z,103927.53
2019-02-24T19:08:44.959Z,103930.65
2019-02-24T19:11:15.642Z,103930.23
2019-02-24T19:13:46.328Z,103936.84
2019-02-24T19:16:16.891Z,103935.23
2019-02-24T19:18:47.524Z,103932.49
2019-02-24T19:21:18.057Z,103941.70
2019-02-24T19:23:48.690Z,103950.11
2019-02-24T19:26:19.251Z,103944.46
2019-02-24T19:28:49.842Z,103948.27
2019-02-24T19:31:20.372Z,103947.70
2019-02-24T19:33:50.989Z,103948.09
2019-02-24T19:36:21.578Z,103943.98
2019-02-24T19:41:16.397Z,103950.48
2019-02-24T19:43:46.957Z,103960.75
2019-02-24T19:46:17.487Z,103965.92
2019-02-24T19:48:48.121Z,103978.00
2019-02-24T19:53:48.892Z,103920.41
2019-02-24T19:56:19.402Z,103985.59
2019-02-24T19:58:50.076Z,103998.56
2019-02-24T20:01:22.752Z,103997.61
2019-02-24T20:03:53.811Z,104007.94
2019-02-24T20:06:24.732Z,104010.39
2019-02-24T20:08:55.688Z,104020.39
2019-02-24T20:11:26.480Z,104007.55
2019-02-24T20:13:57.128Z,104024.45
2019-02-24T20:16:27.614Z,104016.80
2019-02-24T20:18:58.114Z,104019.37
2019-02-24T20:21:28.675Z,104033.35
2019-02-24T20:23:59.314Z,104039.56
2019-02-24T20:26:29.836Z,104031.47
2019-02-24T20:29:00.355Z,104035.51
2019-02-24T20:31:30.807Z,104027.23
2019-02-24T20:34:01.323Z,104025.98
2019-02-24T20:36:31.943Z,104025.76
2019-02-24T20:39:02.466Z,104026.30
2019-02-24T20:41:33.083Z,104034.78
2019-02-24T20:44:03.748Z,104028.52
2019-02-24T20:46:34.378Z,104034.88
2019-02-24T20:49:04.814Z,104033.72
2019-02-24T20:51:36.601Z,104022.20
2019-02-24T20:54:07.314Z,104012.09
2019-02-24T20:56:39.515Z,104026.64
2019-02-24T20:59:09.983Z,104025.25
2019-02-24T21:01:40.717Z,104022.56
2019-02-24T21:04:11.231Z,104026.89
2019-02-24T21:06:41.763Z,104025.87
2019-02-24T21:09:12.384Z,104036.42
2019-02-24T21:11:42.897Z,104030.33
2019-02-24T21:14:13.963Z,104037.88
2019-02-24T21:16:44.508Z,104033.48
2019-02-24T21:19:15.158Z,104041.17
2019-02-24T21:21:45.997Z,104050.39
2019-02-24T21:24:16.666Z,104045.23
2019-02-24T21:26:47.438Z,104041.33
2019-02-24T21:29:17.985Z,104039.53
2019-02-24T21:31:48.764Z,104036.43
2019-02-24T21:34:19.291Z,104042.42
2019-02-24T21:36:49.961Z,104048.91
2019-02-24T21:39:20.532Z,104053.31
2019-02-24T21:41:51.158Z,104045.29
2019-02-24T21:44:21.736Z,104044.79
2019-02-24T21:46:52.383Z,104051.55
2019-02-24T21:49:22.945Z,104055.97
2019-02-24T21:51:53.666Z,104057.78
2019-02-24T21:54:24.283Z,104054.17
2019-02-24T21:56:59.139Z,104049.78
2019-02-24T21:59:36.802Z,104049.88
2019-02-24T22:02:01.998Z,104051.06
2019-02-24T22:04:32.504Z,104047.94
2019-02-24T22:07:03.079Z,104052.88
2019-02-24T22:09:33.621Z,104051.44
2019-02-24T22:12:04.286Z,104045.38
2019-02-24T22:14:34.854Z,104042.78
2019-02-24T22:17:05.373Z,104044.34
2019-02-24T22:19:35.843Z,104046.69
2019-02-24T22:22:06.731Z,104057.95
2019-02-24T22:24:37.031Z,104055.73
2019-02-24T22:27:07.402Z,104055.75
2019-02-24T22:29:37.736Z,104053.17
2019-02-24T22:32:07.936Z,104056.53
2019-02-24T22:34:38.213Z,104045.39
2019-02-24T22:37:08.582Z,104043.31
2019-02-24T22:39:38.897Z,104044.36
2019-02-24T22:42:09.215Z,104044.36
2019-02-24T22:44:39.499Z,104046.67
2019-02-24T22:47:10.261Z,104037.61
2019-02-24T22:49:40.686Z,104034.13
2019-02-24T22:52:10.866Z,104036.97
2019-02-24T22:54:41.166Z,104037.47
2019-02-24T22:57:11.357Z,104031.41
2019-02-24T22:59:41.547Z,104025.69
2019-02-24T23:02:12.305Z,104023.99
2019-02-24T23:04:42.497Z,104024.28
2019-02-24T23:07:12.720Z,104019.21
2019-02-24T23:09:42.965Z,104011.83
2019-02-24T23:12:13.204Z,104015.47
2019-02-24T23:14:43.531Z,104008.59
2019-02-24T23:17:13.781Z,104013.92
2019-02-24T23:19:44.010Z,104012.23
2019-02-24T23:22:14.258Z,104010.41
2019-02-24T23:24:44.432Z,104007.56
2019-02-24T23:27:14.622Z,104009.87
2019-02-24T23:29:44.759Z,104015.05
2019-02-24T23:32:15.080Z,104008.19
2019-02-24T23:34:45.345Z,104005.34
2019-02-24T23:37:15.708Z,103990.83
2019-02-24T23:39:45.973Z,103984.75
2019-02-24T23:42:16.643Z,103979.31
2019-02-24T23:44:46.766Z,103972.20
2019-02-24T23:47:17.149Z,103964.58
2019-02-24T23:49:47.393Z,103964.06
2019-02-24T23:52:17.633Z,103967.69
2019-02-24T23:54:47.760Z,103975.47
2019-02-24T23:57:18.076Z,103992.00
2019-02-24T23:59:48.272Z,103994.59
